Time;durP1;ratioP1;P1;durP2;ratioP2;P2;SDS_P1;SDS_P2;PMS_P1;PMS_P2;Temp;Humidity;BMP_temperature;BMP_pressure;BME280_temperature;BME280_humidity;BME280_pressure;Samples;Min_cycle;Max_cycle;Signal;HPM_P1;HPM_P2
2022/12/08 00:01:10;;;;;;;15.45;12.15;;;;;;;3.24;100.00;101142.16;5134479;27;20015;-37
2022/12/08 00:03:35;;;;;;;11.55;10.20;;;;;;;3.24;100.00;101139.50;5134811;27;20034;-37
2022/12/08 00:11:31;;;;;;;11.38;10.27;;;;;;;3.22;100.00;101138.84;5135219;27;20064;-37
2022/12/08 00:13:57;;;;;;;11.18;9.98;;;;;;;3.22;100.00;101128.16;5134555;27;20051;-38
2022/12/08 00:16:22;;;;;;;13.48;10.32;;;;;;;3.22;100.00;101117.47;5134812;27;20027;-37
2022/12/08 00:18:47;;;;;;;11.57;10.43;;;;;;;3.24;100.00;101119.97;5134801;27;20452;-37
2022/12/08 00:21:12;;;;;;;13.40;10.60;;;;;;;3.22;100.00;101112.13;5134632;27;20106;-37
2022/12/08 00:23:38;;;;;;;10.70;9.70;;;;;;;3.17;100.00;101098.44;5134741;27;20485;-37
2022/12/08 00:26:04;;;;;;;12.93;10.60;;;;;;;3.21;100.00;101102.41;5134687;27;20033;-37
2022/12/08 00:28:31;;;;;;;;;;;;;;;3.26;100.00;101100.06;5135167;27;20030;-37
2022/12/08 00:30:57;;;;;;;12.10;10.00;;;;;;;3.22;100.00;101106.78;5134328;27;19907;-37
2022/12/08 00:33:22;;;;;;;10.43;9.27;;;;;;;3.21;100.00;101110.44;5134526;27;20055;-37
2022/12/08 00:35:47;;;;;;;13.97;10.27;;;;;;;3.19;100.00;101104.44;5134414;27;20079;-37
2022/12/08 00:38:13;;;;;;;11.67;10.47;;;;;;;3.20;100.00;101103.44;5135203;27;20019;-37
2022/12/08 00:40:43;;;;;;;11.73;10.03;;;;;;;3.20;100.00;101102.59;5134341;27;20038;-37
2022/12/08 00:43:08;;;;;;;10.85;9.75;;;;;;;3.15;100.00;101095.13;5133637;27;20451;-38
2022/12/08 00:45:34;;;;;;;10.80;9.40;;;;;;;3.16;100.00;101094.09;5134295;27;20064;-38
2022/12/08 00:47:59;;;;;;;11.03;9.87;;;;;;;3.13;100.00;101081.13;5134729;27;20030;-38
2022/12/08 00:50:24;;;;;;;11.40;10.07;;;;;;;3.16;100.00;101088.75;5134301;27;20031;-38
2022/12/08 00:52:49;;;;;;;11.47;9.97;;;;;;;3.16;100.00;101072.72;5134351;27;20045;-38
2022/12/08 00:55:15;;;;;;;11.90;10.53;;;;;;;3.23;100.00;101075.53;5134135;27;20019;-37
2022/12/08 00:57:40;;;;;;;11.52;9.77;;;;;;;3.20;100.00;101075.88;5134076;27;20498;-37
2022/12/08 01:00:06;;;;;;;13.03;10.27;;;;;;;3.20;100.00;101074.03;5134113;27;20027;-37
2022/12/08 01:02:33;;;;;;;10.63;9.65;;;;;;;3.17;100.00;101071.72;5132837;27;20084;-37
2022/12/08 01:04:58;;;;;;;10.20;9.18;;;;;;;3.03;100.00;101040.44;5133955;27;20027;-37
2022/12/08 01:07:23;;;;;;;10.70;9.60;;;;;;;3.21;100.00;101062.34;5134308;27;20091;-37
2022/12/08 01:09:49;;;;;;;11.03;9.63;;;;;;;3.24;100.00;101067.34;5133588;27;20024;-37
2022/12/08 01:12:14;;;;;;;11.00;9.23;;;;;;;3.25;100.00;101073.50;5134715;27;20516;-38
2022/12/08 01:14:39;;;;;;;10.50;9.40;;;;;;;3.24;100.00;101071.84;5134284;27;20055;-37
2022/12/08 01:17:05;;;;;;;10.93;8.93;;;;;;;3.25;100.00;101068.16;5133487;28;20052;-37
2022/12/08 01:19:30;;;;;;;11.57;9.37;;;;;;;3.25;100.00;101071.66;5134346;28;20035;-37
2022/12/08 01:21:55;;;;;;;11.07;9.27;;;;;;;3.26;100.00;101070.66;5133767;28;20023;-37
2022/12/08 01:24:21;;;;;;;11.77;9.77;;;;;;;3.21;100.00;101062.34;5134262;28;20045;-37
2022/12/08 01:26:49;;;;;;;10.85;9.23;;;;;;;3.27;100.00;101074.16;5133751;28;20269;-37
2022/12/08 01:29:14;;;;;;;10.20;9.20;;;;;;;3.24;100.00;101069.19;5134481;28;20106;-37
2022/12/08 01:31:39;;;;;;;10.30;9.30;;;;;;;3.28;100.00;101068.66;5132688;28;20123;-37
2022/12/08 01:34:06;;;;;;;10.33;9.17;;;;;;;3.22;100.00;101057.81;5134028;28;20103;-37
2022/12/08 01:36:32;;;;;;;;;;;;;;;3.35;100.00;101071.44;5133876;28;20610;-36
2022/12/08 01:39:00;;;;;;;8.90;8.00;;;;;;;3.31;100.00;101062.94;5133769;27;19914;-37
2022/12/08 01:41:29;;;;;;;10.35;8.75;;;;;;;3.30;100.00;101055.94;5133951;28;20027;-36
2022/12/08 01:43:54;;;;;;;9.77;8.77;;;;;;;3.28;100.00;101057.97;5133549;28;20031;-36
2022/12/08 01:46:20;;;;;;;9.57;8.23;;;;;;;3.26;100.00;101045.78;5133861;28;20031;-36
2022/12/08 01:48:45;;;;;;;9.43;7.87;;;;;;;3.33;100.00;101060.09;5134247;28;20099;-36
2022/12/08 01:51:11;;;;;;;12.07;9.60;;;;;;;3.29;100.00;101053.44;5133588;28;20031;-36
2022/12/08 01:53:37;;;;;;;8.85;8.05;;;;;;;3.30;100.00;101050.59;5133873;28;20371;-36
2022/12/08 01:56:10;;;;;;;;;;;;;;;3.35;100.00;101050.03;5133954;28;20031;-36
2022/12/08 01:58:41;;;;;;;9.20;8.10;;;;;;;3.30;100.00;101050.59;5133801;27;19908;-36
2022/12/08 02:01:07;;;;;;;9.02;7.80;;;;;;;3.33;100.00;101041.38;5134028;28;20156;-36
2022/12/08 02:03:44;;;;;;;9.02;8.13;;;;;;;3.30;100.00;101039.88;5133554;28;20113;-36
2022/12/08 02:06:10;;;;;;;9.02;8.10;;;;;;;3.28;100.00;101031.22;5133931;28;20431;-36
2022/12/08 02:08:39;;;;;;;8.57;7.78;;;;;;;3.28;100.00;101033.91;5133801;28;20023;-36
2022/12/08 02:11:07;;;;;;;9.40;7.38;;;;;;;3.26;100.00;101027.06;5133348;28;20034;-36
2022/12/08 02:13:32;;;;;;;8.30;7.35;;;;;;;3.18;100.00;101014.59;5133450;27;20035;-36
2022/12/08 02:16:10;;;;;;;10.17;7.90;;;;;;;3.26;100.00;101035.06;5133926;28;20474;-36
2022/12/08 02:19:00;;;;;;;10.18;7.47;;;;;;;3.25;100.00;101028.06;5133912;28;20110;-36
2022/12/08 02:21:34;;;;;;;7.63;6.90;;;;;;;3.22;100.00;101029.28;5134819;27;20035;-36
2022/12/08 02:24:14;;;;;;;8.48;7.63;;;;;;;3.22;100.00;101020.41;5137288;27;20035;-36
2022/12/08 02:26:58;;;;;;;7.63;6.93;;;;;;;3.20;100.00;101017.09;5137512;27;20023;-36
2022/12/08 02:30:03;;;;;;;7.70;6.93;;;;;;;3.21;100.00;101006.22;5137005;27;20023;-37
2022/12/08 02:33:00;;;;;;;7.53;6.82;;;;;;;3.26;100.00;101003.84;5136933;27;20028;-36
2022/12/08 02:35:26;;;;;;;7.15;6.40;;;;;;;3.23;100.00;101001.53;5136954;27;20069;-36
2022/12/08 02:38:23;;;;;;;7.10;6.07;;;;;;;3.27;100.00;100996.63;5137074;27;20063;-36
2022/12/08 02:40:48;;;;;;;9.52;7.00;;;;;;;3.22;100.00;100996.34;5093461;28;20496;-36
2022/12/08 02:43:24;;;;;;;7.60;6.77;;;;;;;3.25;100.00;100996.00;5093243;28;20032;-36
2022/12/08 02:45:54;;;;;;;7.60;6.90;;;;;;;3.23;100.00;100990.03;5077355;28;20032;-36
2022/12/08 02:48:20;;;;;;;7.22;5.88;;;;;;;3.20;100.00;100980.50;5093502;28;20119;-36
2022/12/08 02:50:45;;;;;;;7.22;6.53;;;;;;;3.15;100.00;100982.06;5093585;28;20587;-36
2022/12/08 02:53:11;;;;;;;7.50;6.70;;;;;;;3.16;100.00;100971.19;5093368;28;20430;-37
2022/12/08 02:55:43;;;;;;;6.57;5.80;;;;;;;3.21;100.00;100971.47;5093013;28;20409;-37
2022/12/08 02:58:45;;;;;;;7.47;6.35;;;;;;;3.21;100.00;100973.31;5093460;28;20036;-37
2022/12/08 03:01:35;;;;;;;6.90;5.75;;;;;;;3.20;100.00;100975.16;5093572;28;20028;-37
2022/12/08 03:04:12;;;;;;;6.72;5.40;;;;;;;3.22;100.00;100983.00;5093271;28;20040;-37
2022/12/08 03:06:37;;;;;;;;;;;;;;;3.27;100.00;100981.47;5093248;28;20032;-37
2022/12/08 03:09:27;;;;;;;6.33;4.77;;;;;;;3.24;100.00;100983.66;5093178;28;19934;-37
2022/12/08 03:12:24;;;;;;;5.40;4.90;;;;;;;3.26;100.00;100981.63;5093303;28;20043;-37
2022/12/08 03:14:54;;;;;;;5.70;4.30;;;;;;;3.23;100.00;100969.47;5092728;28;20056;-37
2022/12/08 03:17:23;;;;;;;4.50;4.03;;;;;;;3.29;100.00;100976.75;5131455;27;20464;-37
2022/12/08 03:19:48;;;;;;;5.10;4.60;;;;;;;3.22;100.00;100962.47;5134890;27;20040;-37
2022/12/08 03:22:18;;;;;;;5.05;4.55;;;;;;;3.31;100.00;100973.91;5136416;27;20030;-37
2022/12/08 03:24:45;;;;;;;6.15;4.78;;;;;;;3.25;100.00;100956.75;5135888;27;20499;-37
2022/12/08 03:27:18;;;;;;;4.72;3.92;;;;;;;3.37;100.00;100957.16;5135502;27;20390;-37
2022/12/08 03:29:45;;;;;;;5.30;4.20;;;;;;;3.32;100.00;100956.88;5136113;27;20038;-37
2022/12/08 03:32:38;;;;;;;5.43;4.10;;;;;;;3.31;100.00;100948.00;5135299;27;20375;-37
2022/12/08 03:35:16;;;;;;;5.18;3.78;;;;;;;3.31;100.00;100950.66;5135505;27;20393;-37
2022/12/08 03:37:42;;;;;;;3.97;3.63;;;;;;;3.23;100.00;100921.34;5136453;27;20031;-37
2022/12/08 03:40:12;;;;;;;4.53;3.92;;;;;;;3.29;100.00;100931.31;5135590;27;20023;-37
2022/12/08 03:42:38;;;;;;;6.32;4.70;;;;;;;3.28;100.00;100929.66;5135844;27;20455;-37
2022/12/08 03:45:04;;;;;;;5.30;4.27;;;;;;;3.28;100.00;100929.66;5136035;27;20052;-37
2022/12/08 03:47:29;;;;;;;;;;;;;;;3.35;100.00;100925.25;5136144;27;20027;-37
2022/12/08 03:49:55;;;;;;;6.10;4.82;;;;;;;3.26;100.00;100923.66;5135123;27;20325;-37
2022/12/08 03:52:20;;;;;;;6.00;4.80;;;;;;;3.28;100.00;100923.50;5135335;27;20023;-37
2022/12/08 03:54:45;;;;;;;4.97;4.30;;;;;;;3.28;100.00;100924.31;5135536;27;20106;-37
2022/12/08 03:57:11;;;;;;;5.53;5.00;;;;;;;3.28;100.00;100921.66;5134956;27;20026;-37
2022/12/08 03:59:36;;;;;;;5.93;5.33;;;;;;;3.24;100.00;100914.16;5135779;27;20040;-37
2022/12/08 04:02:01;;;;;;;7.43;5.70;;;;;;;3.27;100.00;100911.97;5135887;27;20379;-37
2022/12/08 04:04:27;;;;;;;8.83;6.23;;;;;;;3.29;100.00;100909.13;5135853;27;20087;-37
2022/12/08 04:06:52;;;;;;;8.13;6.40;;;;;;;3.31;100.00;100907.91;5135044;27;20374;-37
2022/12/08 04:09:17;;;;;;;7.80;6.97;;;;;;;3.30;100.00;100908.91;5134934;27;20527;-37
2022/12/08 04:11:43;;;;;;;8.07;6.60;;;;;;;3.31;100.00;100907.06;5134941;27;20547;-37
2022/12/08 04:14:08;;;;;;;8.67;7.77;;;;;;;3.31;100.00;100907.91;5135119;27;20078;-37
2022/12/08 04:16:33;;;;;;;11.90;7.70;;;;;;;3.32;100.00;100906.91;5135137;27;20023;-37
2022/12/08 04:18:59;;;;;;;8.33;7.33;;;;;;;3.32;100.00;100893.53;5134636;27;20091;-37
2022/12/08 04:21:24;;;;;;;9.50;8.50;;;;;;;3.23;100.00;100880.44;5133376;27;20126;-37
2022/12/08 04:23:50;;;;;;;9.50;8.33;;;;;;;3.33;100.00;100892.53;5134742;27;20343;-37
2022/12/08 04:26:15;;;;;;;10.13;9.03;;;;;;;3.34;100.00;100888.84;5134883;27;20034;-37
2022/12/08 04:28:41;;;;;;;11.52;9.82;;;;;;;3.32;100.00;100882.84;5134335;27;20027;-37
2022/12/08 04:31:06;;;;;;;10.67;9.67;;;;;;;3.33;100.00;100889.03;5134626;27;20027;-37
2022/12/08 04:33:33;;;;;;;11.03;9.80;;;;;;;3.32;100.00;100893.53;5134503;27;20391;-37
2022/12/08 04:35:59;;;;;;;11.32;9.85;;;;;;;3.36;100.00;100899.34;5134706;27;20311;-37
2022/12/08 04:38:25;;;;;;;11.65;10.35;;;;;;;3.34;100.00;100894.19;5135021;27;20027;-37
2022/12/08 04:40:50;;;;;;;12.40;10.13;;;;;;;3.35;100.00;100900.34;5134181;27;20023;-37
2022/12/08 04:43:16;;;;;;;11.20;10.07;;;;;;;3.36;100.00;100900.16;5134449;27;20417;-37
2022/12/08 04:45:42;;;;;;;11.53;10.33;;;;;;;3.34;100.00;100891.50;5132941;27;20026;-36
2022/12/08 04:48:08;;;;;;;12.52;10.68;;;;;;;3.34;100.00;100891.50;5134377;27;20046;-36
2022/12/08 04:50:33;;;;;;;;;;;;;;;3.40;100.00;100889.13;5135467;27;20417;-36
2022/12/08 04:52:58;;;;;;;14.07;10.53;;;;;;;3.34;100.00;100886.16;5134053;27;20006;-36
2022/12/08 04:55:24;;;;;;;12.57;10.23;;;;;;;3.36;100.00;100886.78;5134196;27;20280;-36
2022/12/08 04:57:49;;;;;;;11.23;10.17;;;;;;;3.38;100.00;100891.97;5134303;27;20015;-36
2022/12/08 05:00:15;;;;;;;11.57;10.37;;;;;;;3.37;100.00;100890.31;5134570;27;20459;-36
2022/12/08 05:02:41;;;;;;;11.57;10.48;;;;;;;3.39;100.00;100890.97;5134089;27;20034;-36
2022/12/08 05:05:07;;;;;;;11.17;10.07;;;;;;;3.35;100.00;100893.16;5134253;27;20035;-37
2022/12/08 05:07:32;;;;;;;11.75;10.40;;;;;;;3.39;100.00;100892.81;5134573;27;20439;-36
2022/12/08 05:09:58;;;;;;;11.25;10.20;;;;;;;3.43;100.00;100902.13;5134097;27;20110;-36
2022/12/08 05:12:23;;;;;;;11.55;10.40;;;;;;;3.42;100.00;100909.31;5133170;27;20031;-36
2022/12/08 05:14:49;;;;;;;11.07;9.97;;;;;;;3.41;100.00;100898.78;5133922;27;20051;-36
2022/12/08 05:17:15;;;;;;;11.70;8.73;;;;;;;3.36;100.00;100894.00;5134191;28;20261;-37
2022/12/08 05:19:41;;;;;;;7.65;5.88;;;;;;;3.18;100.00;100880.16;5132936;28;20027;-37
2022/12/08 05:22:06;;;;;;;7.17;6.17;;;;;;;3.25;100.00;100894.44;5133661;28;20386;-37
2022/12/08 05:24:31;;;;;;;7.43;6.60;;;;;;;3.24;100.00;100900.81;5133649;28;20033;-38
2022/12/08 05:26:57;;;;;;;7.60;6.07;;;;;;;3.22;100.00;100897.47;5133774;28;20062;-36
2022/12/08 05:29:22;;;;;;;6.97;5.50;;;;;;;3.20;100.00;100892.31;5133898;28;20110;-36
2022/12/08 05:31:48;;;;;;;6.63;5.30;;;;;;;3.16;100.00;100888.34;5134314;28;20273;-37
2022/12/08 05:34:13;;;;;;;5.80;5.20;;;;;;;3.18;100.00;100891.69;5134293;28;20015;-37
2022/12/08 05:36:38;;;;;;;6.20;4.63;;;;;;;3.16;100.00;100882.16;5133946;28;20032;-37
2022/12/08 05:39:04;;;;;;;4.73;4.10;;;;;;;3.15;100.00;100884.00;5133773;28;20030;-37
2022/12/08 05:41:29;;;;;;;4.07;3.53;;;;;;;3.11;100.00;100880.03;5134042;28;20151;-36
2022/12/08 05:43:54;;;;;;;4.33;3.93;;;;;;;3.07;100.00;100866.22;5134236;28;20023;-37
2022/12/08 05:46:20;;;;;;;3.80;3.03;;;;;;;3.05;100.00;100870.91;5134004;28;20396;-38
2022/12/08 05:48:45;;;;;;;3.60;2.80;;;;;;;3.04;100.00;100866.59;5133713;28;20020;-35
2022/12/08 05:51:19;;;;;;;3.47;2.43;;;;;;;3.07;100.00;100868.03;5133685;28;20110;-37
2022/12/08 05:53:45;;;;;;;4.70;2.60;;;;;;;3.05;100.00;100862.91;5133974;27;20023;-37
2022/12/08 05:56:11;;;;;;;4.05;2.47;;;;;;;3.06;100.00;100861.06;5134524;27;20031;-37
2022/12/08 05:58:36;;;;;;;4.50;2.70;;;;;;;3.07;100.00;100866.22;5137561;27;20038;-38
2022/12/08 06:01:02;;;;;;;4.20;2.83;;;;;;;3.09;100.00;100863.38;5137375;27;20031;-37
2022/12/08 06:03:28;;;;;;;3.38;2.15;;;;;;;3.02;100.00;100862.41;5137993;27;20023;-37
2022/12/08 06:05:53;;;;;;;3.97;2.30;;;;;;;3.09;100.00;100869.53;5137598;27;20031;-35
2022/12/08 06:08:19;;;;;;;4.73;2.70;;;;;;;3.07;100.00;100866.22;5137756;27;20477;-36
2022/12/08 06:10:45;;;;;;;4.20;2.37;;;;;;;3.09;100.00;100863.38;5137049;27;20272;-36
2022/12/08 06:13:11;;;;;;;3.38;2.03;;;;;;;3.05;100.00;100854.88;5137282;27;20249;-36
2022/12/08 06:15:37;;;;;;;2.97;2.13;;;;;;;3.07;100.00;100855.53;5137589;27;20472;-37
2022/12/08 06:18:03;;;;;;;;;;;;;;;3.12;100.00;100859.50;5137647;27;20035;-37
2022/12/08 06:20:29;;;;;;;4.13;2.22;;;;;;;3.00;100.00;100848.44;5135911;27;19919;-37
2022/12/08 06:22:54;;;;;;;2.42;2.00;;;;;;;3.06;100.00;100856.53;5137359;27;20478;-37
2022/12/08 06:25:20;;;;;;;2.30;1.88;;;;;;;3.10;100.00;100857.00;5135990;27;20019;-37
2022/12/08 06:27:46;;;;;;;3.30;2.05;;;;;;;3.10;100.00;100854.34;5137113;27;20388;-37
2022/12/08 06:30:12;;;;;;;3.97;2.10;;;;;;;3.05;100.00;100844.19;5137201;27;20466;-37
2022/12/08 06:32:37;;;;;;;3.00;2.17;;;;;;;3.13;100.00;100851.31;5137451;27;20019;-37
2022/12/08 06:35:02;;;;;;;3.00;1.70;;;;;;;3.02;100.00;100833.03;5136896;27;20031;-37
2022/12/08 06:37:28;;;;;;;2.80;1.80;;;;;;;3.03;100.00;100832.03;5137128;27;20023;-37
2022/12/08 06:39:53;;;;;;;3.13;2.00;;;;;;;3.09;100.00;100842.81;5137132;27;20777;-37
2022/12/08 06:45:03;;;;;;;4.13;1.90;;;;;;;3.12;100.00;100854.16;5137188;27;20058;-36
2022/12/08 06:47:28;;;;;;;4.13;1.90;;;;;;;3.14;100.00;100858.31;5136270;27;20024;-36
2022/12/08 06:49:53;;;;;;;4.50;1.80;;;;;;;3.05;100.00;100840.69;5136669;27;20031;-37
2022/12/08 06:52:19;;;;;;;5.03;2.40;;;;;;;3.12;100.00;100851.47;5136433;27;20023;-37
2022/12/08 06:54:44;;;;;;;3.93;1.83;;;;;;;3.12;100.00;100857.66;5136792;27;20019;-38
2022/12/08 06:57:09;;;;;;;2.17;1.97;;;;;;;3.12;100.00;100852.31;5136629;27;20027;-37
2022/12/08 06:59:35;;;;;;;3.17;1.77;;;;;;;3.12;100.00;100849.63;5136493;27;20364;-38
2022/12/08 07:02:00;;;;;;;2.93;1.80;;;;;;;3.00;100.00;100829.72;5136222;27;20054;-37
2022/12/08 07:04:26;;;;;;;2.45;1.90;;;;;;;3.10;100.00;100847.16;5135024;27;20636;-37
2022/12/08 07:06:51;;;;;;;4.20;1.97;;;;;;;3.09;100.00;100840.16;5136243;27;20076;-37
2022/12/08 07:09:16;;;;;;;3.23;1.90;;;;;;;3.10;100.00;100840.97;5135089;27;20122;-37
2022/12/08 07:11:42;;;;;;;4.00;1.90;;;;;;;3.11;100.00;100842.63;5136413;27;20447;-37
2022/12/08 07:14:07;;;;;;;5.30;2.53;;;;;;;3.00;100.00;100816.38;5136730;27;20072;-36
2022/12/08 07:16:32;;;;;;;4.10;1.63;;;;;;;3.07;100.00;100833.31;5135118;27;20382;-37
2022/12/08 07:18:58;;;;;;;2.40;1.63;;;;;;;3.14;100.00;100849.47;5136549;27;20072;-36
2022/12/08 07:21:24;;;;;;;2.10;1.48;;;;;;;3.13;100.00;100839.78;5136134;27;20045;-37
2022/12/08 07:23:50;;;;;;;2.72;1.70;;;;;;;3.13;100.00;100847.81;5136804;27;20023;-37
2022/12/08 07:26:15;;;;;;;2.43;1.63;;;;;;;3.15;100.00;100853.78;5135943;27;20437;-37
2022/12/08 07:28:41;;;;;;;4.40;2.00;;;;;;;3.13;100.00;100850.47;5136904;27;20471;-37
2022/12/08 07:31:16;;;;;;;5.20;2.00;;;;;;;3.15;100.00;100851.94;5135965;27;20050;-37
2022/12/08 07:33:41;;;;;;;3.10;1.90;;;;;;;3.14;100.00;100847.63;5135876;27;20083;-37
2022/12/08 07:36:07;;;;;;;4.32;1.90;;;;;;;3.15;100.00;100848.44;5136620;27;20102;-38
2022/12/08 07:38:32;;;;;;;4.05;2.10;;;;;;;3.17;100.00;100851.75;5136076;27;20019;-36
2022/12/08 07:40:58;;;;;;;3.90;1.77;;;;;;;3.19;100.00;100853.25;5134378;27;20039;-36
2022/12/08 07:43:24;;;;;;;4.57;2.78;;;;;;;3.02;100.00;100828.50;5134059;27;20035;-37
2022/12/08 07:45:49;;;;;;;3.43;2.60;;;;;;;3.07;100.00;100828.81;5136002;27;20039;-36
2022/12/08 07:48:15;;;;;;;4.57;3.42;;;;;;;3.18;100.00;100846.25;5136144;27;20053;-37
2022/12/08 07:50:42;;;;;;;5.90;3.25;;;;;;;3.16;100.00;100856.28;5135325;27;20019;-37
2022/12/08 07:53:07;;;;;;;5.00;3.15;;;;;;;3.17;100.00;100857.94;5135294;27;20368;-37
2022/12/08 07:55:32;;;;;;;4.03;2.97;;;;;;;3.10;100.00;100857.00;5135054;27;20022;-37
2022/12/08 07:57:58;;;;;;;4.30;3.10;;;;;;;3.08;100.00;100856.38;5136261;27;20156;-36
2022/12/08 08:00:23;;;;;;;3.70;3.37;;;;;;;3.07;100.00;100852.88;5135592;27;20026;-37
2022/12/08 08:02:49;;;;;;;3.90;3.00;;;;;;;3.13;100.00;100859.34;5135627;27;20022;-37
2022/12/08 08:05:15;;;;;;;4.30;2.85;;;;;;;3.06;100.00;100858.38;5135282;27;20602;-37
2022/12/08 08:07:42;;;;;;;2.97;2.67;;;;;;;3.05;100.00;100854.88;5134893;27;20062;-37
2022/12/08 08:10:09;;;;;;;3.65;2.72;;;;;;;2.98;100.00;100843.28;5134613;27;20031;-37
2022/12/08 08:12:35;;;;;;;3.35;2.50;;;;;;;3.06;100.00;100856.53;5134783;27;20109;-36
2022/12/08 08:15:00;;;;;;;3.85;2.67;;;;;;;3.09;100.00;100866.03;5134419;27;20062;-36
2022/12/08 08:17:27;;;;;;;3.85;2.50;;;;;;;3.08;100.00;100864.38;5134729;27;20035;-37
2022/12/08 08:19:52;;;;;;;;;;;;;;;3.14;100.00;100869.00;5134430;27;20059;-36
2022/12/08 08:22:17;;;;;;;3.00;2.40;;;;;;;3.13;100.00;100870.03;5135032;27;19980;-36
2022/12/08 08:24:43;;;;;;;2.93;2.30;;;;;;;3.02;100.00;100855.22;5134634;27;20037;-36
2022/12/08 08:27:08;;;;;;;3.20;2.40;;;;;;;3.10;100.00;100865.84;5134680;27;20023;-36
2022/12/08 08:29:33;;;;;;;4.13;2.40;;;;;;;3.12;100.00;100864.84;5134583;27;20027;-36
2022/12/08 08:31:59;;;;;;;3.90;2.90;;;;;;;3.10;100.00;100865.84;5134844;27;20031;-36
2022/12/08 08:34:24;;;;;;;3.40;2.30;;;;;;;3.08;100.00;100865.22;5134458;27;20027;-36
2022/12/08 08:36:49;;;;;;;3.60;2.27;;;;;;;3.09;100.00;100864.19;5134395;27;20481;-36
2022/12/08 08:39:15;;;;;;;2.63;2.13;;;;;;;3.10;100.00;100870.38;5135152;27;20405;-36
2022/12/08 08:41:40;;;;;;;3.47;2.23;;;;;;;3.02;100.00;100857.91;5134699;27;20080;-36
2022/12/08 08:44:05;;;;;;;3.63;2.30;;;;;;;3.09;100.00;100864.19;5134273;27;20379;-36
2022/12/08 08:46:31;;;;;;;4.50;2.77;;;;;;;3.12;100.00;100862.16;5134011;27;20028;-36
2022/12/08 08:48:57;;;;;;;2.87;2.50;;;;;;;3.08;100.00;100861.72;5134326;27;20385;-36
2022/12/08 08:51:22;;;;;;;3.60;2.83;;;;;;;3.09;100.00;100866.88;5134438;27;20285;-36
2022/12/08 08:53:47;;;;;;;3.37;3.07;;;;;;;3.12;100.00;100865.66;5134934;27;20031;-36
2022/12/08 08:56:16;;;;;;;3.17;2.70;;;;;;;3.12;100.00;100876.34;5132932;27;20023;-36
2022/12/08 08:58:42;;;;;;;4.07;2.30;;;;;;;3.11;100.00;100866.69;5134060;27;20512;-36
2022/12/08 09:01:07;;;;;;;2.33;2.10;;;;;;;3.10;100.00;100870.38;5134213;27;20024;-36
2022/12/08 09:03:33;;;;;;;4.73;2.17;;;;;;;3.07;100.00;100857.34;5134863;27;20032;-36
2022/12/08 09:05:58;;;;;;;3.47;2.20;;;;;;;3.07;100.00;100862.69;5132576;27;20035;-36
2022/12/08 09:08:24;;;;;;;3.77;2.13;;;;;;;3.08;100.00;100864.38;5134111;27;20432;-37
2022/12/08 09:10:49;;;;;;;2.58;2.20;;;;;;;3.07;100.00;100862.69;5133142;27;20110;-37
2022/12/08 09:13:15;;;;;;;2.22;2.03;;;;;;;3.06;100.00;100866.41;5133935;27;20035;-36
2022/12/08 09:15:40;;;;;;;3.20;2.33;;;;;;;3.04;100.00;100866.59;5134293;27;20043;-36
2022/12/08 09:18:06;;;;;;;2.70;2.00;;;;;;;2.95;100.00;100842.78;5134449;27;20077;-37
2022/12/08 09:20:32;;;;;;;3.00;1.90;;;;;;;3.05;100.00;100846.03;5133692;28;20475;-36
2022/12/08 09:22:58;;;;;;;3.05;1.90;;;;;;;3.13;100.00;100862.00;5134152;28;20065;-36
2022/12/08 09:25:23;;;;;;;2.87;2.10;;;;;;;3.14;100.00;100854.81;5133537;28;20055;-36
2022/12/08 09:27:48;;;;;;;3.00;1.90;;;;;;;3.23;100.00;100851.06;5134862;28;20023;-36
2022/12/08 09:30:14;;;;;;;3.23;2.03;;;;;;;3.14;100.00;100836.09;5135219;27;20523;-36
2022/12/08 09:32:40;;;;;;;4.35;1.70;;;;;;;3.21;100.00;100851.22;5136780;27;20457;-36
2022/12/08 09:35:05;;;;;;;3.07;1.60;;;;;;;3.15;100.00;100827.91;5137925;27;20110;-36
2022/12/08 09:37:31;;;;;;;3.90;1.65;;;;;;;3.29;100.00;100856.47;5138349;27;20031;-37
2022/12/08 09:39:56;;;;;;;4.37;1.87;;;;;;;3.29;100.00;100851.13;5138452;27;20087;-37
2022/12/08 09:43:06;;;;;;;3.10;1.33;;;;;;;3.33;100.00;100843.59;5137847;27;20039;-37
2022/12/08 09:45:34;;;;;;;3.08;1.50;;;;;;;3.27;100.00;100841.63;5136117;27;20039;-37
2022/12/08 09:48:18;;;;;;;3.63;1.80;;;;;;;3.27;100.00;100841.63;5138004;27;20034;-37
2022/12/08 09:50:55;;;;;;;4.25;1.80;;;;;;;3.27;100.00;100847.81;5137633;27;20027;-36
2022/12/08 09:53:21;;;;;;;4.38;1.70;;;;;;;3.30;100.00;100847.44;5138337;27;20031;-36
2022/12/08 09:55:59;;;;;;;4.37;2.20;;;;;;;3.21;100.00;100827.16;5137518;27;20031;-37
2022/12/08 09:58:44;;;;;;;3.72;1.90;;;;;;;3.30;100.00;100842.09;5137193;27;20042;-36
2022/12/08 10:01:11;;;;;;;2.38;1.60;;;;;;;3.29;100.00;100844.97;5137980;27;20027;-36
2022/12/08 10:03:37;;;;;;;3.75;1.95;;;;;;;3.29;100.00;100832.44;5137403;27;20019;-36
2022/12/08 10:06:15;;;;;;;3.80;1.67;;;;;;;3.29;100.00;100847.63;5137356;27;20031;-36
2022/12/08 10:08:57;;;;;;;2.67;1.75;;;;;;;3.22;100.00;100833.34;5137332;27;20105;-36
2022/12/08 10:11:35;;;;;;;2.90;1.70;;;;;;;3.25;100.00;100833.81;5137856;27;20023;-36
2022/12/08 10:14:15;;;;;;;3.97;1.88;;;;;;;3.28;100.00;100843.31;5136847;27;20047;-36
2022/12/08 10:16:47;;;;;;;4.72;1.40;;;;;;;3.27;100.00;100837.13;5136118;27;20043;-37
2022/12/08 10:19:23;;;;;;;5.45;1.60;;;;;;;3.24;100.00;100825.97;5137662;27;20063;-36
2022/12/08 10:21:49;;;;;;;4.93;1.63;;;;;;;3.28;100.00;100832.63;5137496;27;20019;-36
2022/12/08 10:24:19;;;;;;;4.45;1.58;;;;;;;3.28;100.00;100833.44;5137616;27;20031;-36
2022/12/08 10:26:46;;;;;;;3.80;1.88;;;;;;;3.33;100.00;100836.41;5137115;27;20375;-36
2022/12/08 10:29:12;;;;;;;4.03;1.70;;;;;;;3.31;100.00;100833.06;5137047;27;20470;-36
2022/12/08 10:31:38;;;;;;;3.10;1.77;;;;;;;3.30;100.00;100828.72;5137090;27;20496;-36
2022/12/08 10:34:18;;;;;;;3.83;1.97;;;;;;;3.33;100.00;100835.56;5137041;27;20106;-36
2022/12/08 10:36:47;;;;;;;3.60;1.67;;;;;;;3.32;100.00;100826.72;5137270;27;20356;-36
2022/12/08 10:39:32;;;;;;;2.65;1.55;;;;;;;3.29;100.00;100812.88;5136501;27;20042;-36
2022/12/08 10:42:20;;;;;;;4.22;2.72;;;;;;;3.31;100.00;100809.00;5136517;27;20466;-36
2022/12/08 10:45:01;;;;;;;4.88;2.05;;;;;;;3.34;100.00;100816.66;5136750;27;20023;-36
2022/12/08 10:47:28;;;;;;;3.97;1.98;;;;;;;3.38;100.00;100814.47;5135568;27;20027;-37
2022/12/08 10:50:17;;;;;;;3.67;2.13;;;;;;;3.37;100.00;100810.13;5137073;27;20123;-36
2022/12/08 10:52:43;;;;;;;2.83;1.80;;;;;;;3.42;100.00;100812.25;5136446;27;20106;-36
2022/12/08 10:55:17;;;;;;;4.50;2.63;;;;;;;3.37;100.00;100804.78;5136661;27;20102;-36
2022/12/08 10:57:43;;;;;;;5.45;2.75;;;;;;;3.45;100.00;100812.69;5136065;27;20019;-36
2022/12/08 11:00:18;;;;;;;4.53;2.50;;;;;;;3.50;100.00;100814.81;5136920;27;20031;-36
2022/12/08 11:02:59;;;;;;;4.82;2.58;;;;;;;3.48;100.00;100808.84;5136509;27;20024;-36
2022/12/08 11:05:33;;;;;;;3.45;2.20;;;;;;;3.54;100.00;100813.44;5136614;27;20027;-36
2022/12/08 11:08:00;;;;;;;4.63;2.33;;;;;;;3.53;100.00;100815.28;5136398;27;20030;-36
2022/12/08 11:10:32;;;;;;;3.90;2.55;;;;;;;3.54;100.00;100813.44;5135889;27;20030;-36
2022/12/08 11:13:01;;;;;;;2.92;2.17;;;;;;;3.50;100.00;100810.28;5136956;27;20382;-36
2022/12/08 11:15:33;;;;;;;3.55;1.80;;;;;;;3.45;100.00;100801.19;5135734;27;20108;-36
2022/12/08 11:18:05;;;;;;;2.55;1.90;;;;;;;3.44;100.00;100815.56;5135771;27;20027;-36
2022/12/08 11:20:38;;;;;;;4.00;2.10;;;;;;;3.41;100.00;100806.06;5136114;27;20029;-36
2022/12/08 11:23:17;;;;;;;3.95;2.63;;;;;;;3.42;100.00;100805.06;5136280;27;20087;-36
2022/12/08 11:25:42;;;;;;;2.95;2.03;;;;;;;3.39;100.00;100801.94;5136124;27;20060;-36
2022/12/08 11:28:09;;;;;;;2.10;1.70;;;;;;;3.37;100.00;100799.44;5136667;27;20031;-36
2022/12/08 11:30:38;;;;;;;2.85;1.73;;;;;;;3.37;100.00;100796.78;5135431;27;20666;-37
2022/12/08 11:33:16;;;;;;;2.88;1.88;;;;;;;3.39;100.00;100791.22;5135781;27;20091;-35
2022/12/08 11:35:48;;;;;;;3.13;2.20;;;;;;;3.38;100.00;100797.59;5135619;27;20026;-36
2022/12/08 11:38:20;;;;;;;1.92;1.73;;;;;;;3.41;100.00;100786.50;5135939;27;20348;-36